Página principal
METAR-TAF:

METAR-TAF

Aeroportos :

Aeroporto Internacional de Wattay

Vientiane, Laos

latitude: 17-57N, longitude: 102-34E, altura: 171 m

Observação actual do tempo

O boletim foi feito há 3 horas e 39 minutos, às 16:30 UTC
Vento 2 kt de noroeste
Temperatura 24°C
Humidade 100%
Pressão 1013 hPa
Visibilidade: 3000 m
Poucas nuvensa uma altura de 10000 ft
neblina

METAR: VLVT 201630Z 32002KT 3000 BR FEW100 24/24 Q1013 NOSIG

Hora: 03:09 (20:09 UTC)

Previsão

O boletim foi feito há 3 horas e 9 minutos, às 17:00 UTC
Previsão válida de 20 às 18 UTC a 21 às 18 UTC
Vento 4 kt de nor-noroeste
Visibilidade: 3000 m
Poucas nuvensa uma altura de 5000 ft
Poucas nuvensa uma altura de 10000 ft
neblina
Temporariamente
de 21 às 00 UTC a 21 às 05 UTC
Visibilidade: 6000 m
Poucas nuvensa uma altura de 10000 ft

TAF: VLVT 201700Z 2018/2118 34004KT 3000 BR FEW050 FEW100 TEMPO 2100/2105 6000 FEW100

Observações e previsões do tempo de mais de 4000 aeroportos (mensagens METAR e TAF).

As estações disponíveis são os pontos amarelos e vermelhos sobre o mapa.

Mova o rato sobre o mapa para ver o nome da estação.

Depois clique no ponto para visualizar as observações e previsões meteorológicas.

Para alterar o mapa : clique nos botões verdes com uma cruz preta para aumentar o zoom; no botão verde com uma pitada de zoom; ou nas setas verdes para mapas adjacentes.


METAR-TAF: